Friday, October 19, 2018, 7:11 AM EDT
Back to Local

KBLM, Belmar-farmingdale

Location: Farmingdale, NJ, United States Lat: 40.183
Local Time: 7:11 AM EDT (11:11 GMT) Lon: -74.133
Time Zone: US/Eastern Elev: 157 ft

Show me the last for .
Show Coded

Time T Td Feel RH Dir Speed Gust Alt SLP Vis Weather Sky Remarks
2018-10-19 06:56 36 32 30 85 220° 8 - 30.33 30.35 10 CLR None
2018-10-19 05:56 37 32 32 81 210° 7 - 30.34 30.35 10 CLR None
2018-10-19 04:56 35 32 32 88 240° 3 - 30.34 30.35 10 CLR None
2018-10-19 03:56 36 32 30 85 230° 7 - 30.35 30.36 10 CLR None
2018-10-19 02:56 38 32 33 78 220° 6 - 30.35 30.37 10 CLR None
2018-10-19 01:56 38 31 34 75 220° 5 - 30.35 30.37 10 CLR 6-hr Min Temp (2am): 35.1°F
6-hr Max Temp (2am): 44.1°F
2018-10-19 00:56 37 33 - 85 - Calm - 30.36 30.37 10 CLR 24-hr Min Temp (1am): 35.1°F
24-hr Max Temp (1am): 52.0°F
2018-10-18 23:56 37 33 34 85 270° 3 - 30.37 30.38 10 CLR None
2018-10-18 22:56 39 32 - 75 - Calm - 30.38 30.39 10 CLR None
2018-10-18 21:56 41 31 37 67 230° 6 - 30.38 30.39 10 CLR None
2018-10-18 20:56 41 31 37 67 250° 6 - 30.36 30.38 10 CLR None
2018-10-18 19:56 44 32 41 62 200° 6 - 30.37 30.38 10 CLR 6-hr Min Temp (8pm): 42.1°F
6-hr Max Temp (8pm): 52.0°F
2018-10-18 18:56 45 30 41 55 260° 7 - 30.36 30.37 10 CLR None
2018-10-18 17:56 48 27 45 43 250° 6 - 30.34 30.36 10 CLR None
2018-10-18 16:56 51 25 - 35 290° 14 - 30.33 30.34 10 CLR None
2018-10-18 14:56 51 23 - 33 270° 13 29 30.34 30.35 10 CLR None
2018-10-18 13:56 51 24 - 34 290° 16 22 30.34 30.36 10 CLR 6-hr Min Temp (2pm): 39.9°F
6-hr Max Temp (2pm): 51.1°F
2018-10-18 12:56 50 23 43 34 280° 9 23 30.36 30.38 10 CLR None
2018-10-18 11:56 48 22 40 35 280° 17 25 30.38 30.39 10 FEW055 None
2018-10-18 10:56 47 24 39 40 290° 17 22 30.37 30.39 10 CLR None
2018-10-18 09:56 45 24 36 43 320° 20 26 30.37 30.38 10 SCT050 None
2018-10-18 08:56 44 28 37 53 310° 14 - 30.36 30.37 10 SCT060 None
2018-10-18 07:56 40 30 34 67 290° 8 - 30.35 30.36 10 OVC050 6-hr Min Temp (8am): 37.9°F
6-hr Max Temp (8am): 45.0°F

Support USWX by starting your Amazon purchase here.